Latest Coastal Weather Observations for Port Pirie Airport AWS***

IDS60701

Issued at 10:45 pm CST Tuesday 16 September 2014 (issued every 10 minutes, with the page automatically refreshed every 10 minutes)

About coastal observations | Map of coastal stations | Coastal observations for SA | Marine services | Other Formats
Station Details ID: 250006 Name: PORT PIRIE AERODROME AWS Lat: -33.23 Lon: 138.00 Height: 10.0 m
Data from the previous 72 hours. | See also: Recent months for locations in South Australia
Date/Time
CST
Temp

°C
Wind Pressure Rain
since 9am
mm
Weather Cloud Vis
km
Sea
Height
m
Swell
Dir
 
Speed
knots
Gust
knots
hPa Trend Height
m
Period
s
Dir
16/10:30pm 11.5 S 7 12 - - 1.2 - - - - - - -
16/10:00pm 13.5 S 7 10 - - 0.0 - - - - - - -
16/09:30pm 13.5 S 2 3 - - 0.0 - - - - - - -
16/09:00pm 13.5 S 5 7 - - 0.0 - - - - - - -
16/08:30pm 13.7 SSW 9 13 - - 0.0 - - - - - - -
16/08:00pm 14.7 SW 7 11 - - 0.0 - - - - - - -
16/07:30pm 14.7 SW 5 9 - - 0.0 - - - - - - -
16/07:00pm 14.0 SW 5 6 - - 0.0 - - - - - - -
16/06:30pm 14.5 SSW 5 6 - - 0.0 - - - - - - -
16/06:00pm 15.5 SW 7 9 - - 0.0 - - - - - - -
16/05:30pm 17.1 SSW 7 10 - - 0.0 - - - - - - -
16/05:00pm 18.2 SSW 9 13 - - 0.0 - - - - - - -
16/04:30pm 18.5 SSW 9 14 - - 0.0 - - - - - - -
16/04:00pm 19.1 S 12 16 - - 0.0 - - - - - - -
16/03:30pm 18.9 SSW 12 16 - - 0.0 - - - - - - -
16/03:00pm 18.5 WSW 9 15 - - 0.0 - - - - - - -
16/02:30pm 18.5 WSW 9 15 - - 0.0 - - - - - - -
16/02:00pm 18.7 WSW 8 17 - - 0.0 - - - - - - -
16/01:30pm 18.1 SW 8 14 - - 0.0 - - - - - - -
16/01:00pm 17.9 SW 9 14 - - 0.0 - - - - - - -
16/12:30pm 18.3 SW 10 16 - - 0.0 - - - - - - -
16/12:00pm 17.6 WSW 7 14 - - 0.0 - - - - - - -
16/11:30am 16.5 WSW 8 13 - - 0.0 - - - - - - -
16/11:00am 17.2 WSW 7 13 - - 0.0 - - - - - - -
16/10:30am 15.7 WSW 5 11 - - 0.0 - - - - - - -
16/10:00am 15.2 WSW 7 13 - - 0.0 - - - - - - -
16/09:30am 14.7 WSW 5 11 - - 0.0 - - - - - - -
16/09:00am 14.5 SW 7 11 - - 0.0 - - - - - - -
16/08:30am 13.6 WSW 2 7 - - 0.0 - - - - - - -
16/08:00am 12.6 NE 1 2 - - 0.0 - - - - - - -
16/07:30am 10.7 ENE 2 2 - - 0.0 - - - - - - -
16/07:00am 10.1 NNW 1 2 - - 0.0 - - - - - - -
16/06:30am 9.4 NNE 2 2 - - 0.0 - - - - - - -
16/06:00am 9.1 NE 1 2 - - 0.0 - - - - - - -
16/05:30am 8.6 NNE 1 2 - - 0.0 - - - - - - -
16/05:00am 8.9 NW 2 3 - - 0.0 - - - - - - -
16/04:30am 9.2 NNE 1 2 - - 0.0 - - - - - - -
16/04:00am 7.6 E 1 1 - - 0.0 - - - - - - -
16/03:30am 8.1 ENE 1 2 - - 0.0 - - - - - - -
16/03:00am 7.8 E 2 2 - - 0.0 - - - - - - -
16/02:30am 7.9 ENE 2 3 - - 0.0 - - - - - - -
16/02:00am 6.2 ENE 2 2 - - 0.0 - - - - - - -
16/01:30am 8.2 NNE 1 2 - - 0.0 - - - - - - -
16/01:00am 7.8 NNE 1 2 - - 0.0 - - - - - - -
16/12:30am 7.0 ESE 3 5 - - 0.0 - - - - - - -
16/12:00am 8.4 ESE 3 4 - - 0.0 - - - - - - -
 
Date/Time
CST
Temp

°C
Wind Pressure Rain
since 9am
mm
Weather Cloud Vis
km
Sea
Height
m
Swell
Dir
 
Speed
knots
Gust
knots
hPa Trend Height
m
Period
s
Dir
15/11:30pm 9.6 S 3 4 - - 0.0 - - - - - - -
15/11:00pm 9.4 SE 2 3 - - 0.0 - - - - - - -
15/10:30pm 11.2 SSW 4 6 - - 0.0 - - - - - - -
15/10:00pm 11.3 S 5 6 - - 0.0 - - - - - - -
15/09:30pm 12.4 SSW 5 9 - - 0.0 - - - - - - -
15/09:00pm 13.0 SW 7 10 - - 0.0 - - - - - - -
15/08:30pm 13.3 SW 8 12 - - 0.0 - - - - - - -
15/08:00pm 13.6 SW 8 12 - - 0.0 - - - - - - -
15/07:30pm 13.5 SW 6 9 - - 0.0 - - - - - - -
15/07:00pm 13.8 SW 8 11 - - 0.0 - - - - - - -
15/06:30pm 14.3 SW 10 15 - - 0.0 - - - - - - -
15/06:00pm 15.0 SW 12 18 - - 0.0 - - - - - - -
15/05:30pm 15.7 SW 15 22 - - 0.0 - - - - - - -
15/05:00pm 16.2 SW 16 22 - - 0.0 - - - - - - -
15/04:30pm 17.0 SW 17 25 - - 0.0 - - - - - - -
15/04:00pm 17.2 SW 17 24 - - 0.0 - - - - - - -
15/03:30pm 17.9 SW 18 24 - - 0.0 - - - - - - -
15/03:00pm 17.6 SW 18 27 - - 0.0 - - - - - - -
15/02:30pm 18.1 SW 17 24 - - 0.0 - - - - - - -
15/02:08pm 18.1 SW 16 26 - - 0.0 - - - - - - -
15/02:00pm 18.1 SW 18 26 - - 0.0 - - - - - - -
15/01:32pm 18.7 SW 19 29 - - 0.0 - - - - - - -
15/01:30pm 18.0 SW 21 29 - - 0.0 - - - - - - -
15/01:22pm 17.8 SW 17 27 - - 0.0 - - - - - - -
15/01:00pm 18.4 WSW 18 25 - - 0.0 - - - - - - -
15/12:30pm 17.3 WSW 16 26 - - 0.0 - - - - - - -
15/12:00pm 17.5 WSW 17 29 - - 0.0 - - - - - - -
15/11:42am 18.0 WSW 15 28 - - 0.0 - - - - - - -
15/11:30am 18.0 WSW 14 26 - - 0.0 - - - - - - -
15/11:00am 17.5 WSW 12 21 - - 0.0 - - - - - - -
15/10:30am 17.1 WSW 12 24 - - 0.0 - - - - - - -
15/10:00am 17.4 WSW 10 20 - - 0.0 - - - - - - -
15/09:30am 16.7 WSW 11 18 - - 0.0 - - - - - - -
15/09:00am 17.2 WSW 12 21 - - 0.0 - - - - - - -
15/08:30am 15.9 WSW 7 14 - - 0.0 - - - - - - -
15/08:00am 15.6 W 6 15 - - 0.0 - - - - - - -
15/07:30am 15.6 WSW 8 14 - - 0.0 - - - - - - -
15/07:00am 15.5 NW 9 15 - - 0.0 - - - - - - -
15/06:30am 15.3 NNW 9 15 - - 0.0 - - - - - - -
15/06:00am 15.2 N 8 15 - - 0.0 - - - - - - -
15/05:30am 15.2 N 8 14 - - 0.0 - - - - - - -
15/05:00am 15.3 N 7 14 - - 0.0 - - - - - - -
15/04:30am 15.2 N 7 12 - - 0.0 - - - - - - -
15/04:00am 15.1 N 7 11 - - 0.0 - - - - - - -
15/03:30am 14.8 N 6 11 - - 0.0 - - - - - - -
15/03:00am 13.6 NNW 5 8 - - 0.0 - - - - - - -
15/02:30am 13.9 NW 7 10 - - 0.0 - - - - - - -
15/02:00am 13.3 NW 5 9 - - 0.0 - - - - - - -
15/01:30am 12.5 NNW 3 4 - - 0.0 - - - - - - -
15/01:00am 11.9 W 2 4 - - 0.0 - - - - - - -
15/12:30am 13.1 WSW 1 3 - - 0.0 - - - - - - -
15/12:00am 10.9 E 3 5 - - 0.0 - - - - - - -
 
Date/Time
CST
Temp

°C
Wind Pressure Rain
since 9am
mm
Weather Cloud Vis
km
Sea
Height
m
Swell
Dir
 
Speed
knots
Gust
knots
hPa Trend Height
m
Period
s
Dir
14/11:30pm 11.4 ESE 3 6 - - 0.0 - - - - - - -
14/11:00pm 13.8 S 3 5 - - 0.0 - - - - - - -
14/10:30pm 14.5 ESE 5 7 - - 0.0 - - - - - - -
14/10:00pm 16.3 SW 8 12 - - 0.0 - - - - - - -
14/09:30pm 17.5 SW 10 14 - - 0.0 - - - - - - -
14/09:00pm 21.1 NNW 5 9 - - 0.0 - - - - - - -
14/08:30pm 22.0 NNE 7 9 - - 0.0 - - - - - - -
14/08:00pm 21.2 NNE 6 9 - - 0.0 - - - - - - -
14/07:30pm 20.2 NE 6 9 - - 0.0 - - - - - - -
14/07:00pm 18.4 NE 5 6 - - 0.0 - - - - - - -
14/06:30pm 20.5 NE 5 7 - - 0.0 - - - - - - -
14/06:00pm 24.7 NNE 8 12 - - 0.0 - - - - - - -
14/05:30pm 26.5 N 8 14 - - 0.0 - - - - - - -
14/05:00pm 27.4 N 7 16 - - 0.0 - - - - - - -
14/04:30pm 27.8 N 8 13 - - 0.0 - - - - - - -
14/04:00pm 28.5 NNE 12 18 - - 0.0 - - - - - - -
14/03:30pm 28.3 NNE 11 17 - - 0.0 - - - - - - -
14/03:00pm 28.6 N 13 20 - - 0.0 - - - - - - -
14/02:30pm 27.9 N 13 18 - - 0.0 - - - - - - -
14/02:00pm 27.7 N 13 21 - - 0.0 - - - - - - -
14/01:30pm 27.2 N 12 21 - - 0.0 - - - - - - -
14/01:00pm 25.2 N 9 16 - - 0.0 - - - - - - -
14/12:30pm 24.8 NNW 11 18 - - 0.0 - - - - - - -
14/12:00pm 24.9 N 11 18 - - 0.0 - - - - - - -
14/11:30am 23.9 NNW 10 18 - - 0.0 - - - - - - -
14/11:00am 24.5 N 9 17 - - 0.0 - - - - - - -
14/10:30am 22.2 NNW 7 11 - - 0.0 - - - - - - -
14/10:00am 22.7 NNW 5 9 - - 0.0 - - - - - - -
14/09:30am 21.6 N 5 8 - - 0.0 - - - - - - -
14/09:00am 20.7 N 5 8 - - 0.0 - - - - - - -
14/08:30am 17.8 NE 3 6 - - 0.0 - - - - - - -
14/08:00am 16.0 ESE 1 2 - - 0.0 - - - - - - -
14/07:30am 11.8 ESE 1 3 - - 0.0 - - - - - - -
14/07:00am 8.3 SE 3 4 - - 0.0 - - - - - - -
14/06:30am 5.9 ESE 4 6 - - 0.0 - - - - - - -
14/06:00am 6.9 SSE 2 4 - - 0.0 - - - - - - -
14/05:30am 7.3 SW 2 5 - - 0.0 - - - - - - -
14/05:00am 7.2 WSW 2 3 - - 0.0 - - - - - - -
14/04:30am 7.6 SE 1 2 - - 0.0 - - - - - - -
14/04:00am 8.9 NNE 2 2 - - 0.0 - - - - - - -
14/03:30am 8.2 SE 2 3 - - 0.0 - - - - - - -
14/03:00am 8.0 SSW 3 3 - - 0.0 - - - - - - -
14/02:30am 8.1 S 3 3 - - 0.0 - - - - - - -
14/02:00am 9.1 NNE 2 3 - - 0.0 - - - - - - -
14/01:30am 9.1 NNE 1 1 - - 0.0 - - - - - - -
14/01:00am 9.6 SSE 2 3 - - 0.0 - - - - - - -
14/12:30am 10.7 SE 2 4 - - 0.0 - - - - - - -
14/12:00am 11.6 SE 5 7 - - 0.0 - - - - - - -
 
Date/Time
CST
Temp

°C
Wind Pressure Rain
since 9am
mm
Weather Cloud Vis
km
Sea
Height
m
Swell
Dir
 
Speed
knots
Gust
knots
hPa Trend Height
m
Period
s
Dir
13/11:30pm 11.1 SSE 6 8 - - 0.0 - - - - - - -
13/11:00pm 11.6 SSE 7 9 - - 0.0 - - - - - - -

Other Formats:

Comma delimited format used in spreadsheet applications
http://www.bom.gov.au/fwo/IDS60701/IDS60701.99001.axf

JavaScript Object Notation format (JSON) in row-major order
http://www.bom.gov.au/fwo/IDS60701/IDS60701.99001.json